sensor_id;sensor_type;location;lat;lon;timestamp;temperature;humidity
53802;DHT22;39709;53.334;6.534;2023-07-02T00:01:41;15.50;14.80
53802;DHT22;39709;53.334;6.534;2023-07-02T00:04:06;15.40;1.00
53802;DHT22;39709;53.334;6.534;2023-07-02T00:06:34;15.50;13.00
53802;DHT22;39709;53.334;6.534;2023-07-02T00:09:06;15.40;33.50
53802;DHT22;39709;53.334;6.534;2023-07-02T00:11:32;15.40;69.70
53802;DHT22;39709;53.334;6.534;2023-07-02T00:13:57;15.40;70.90
53802;DHT22;39709;53.334;6.534;2023-07-02T00:16:23;15.50;55.50
53802;DHT22;39709;53.334;6.534;2023-07-02T00:18:48;15.30;55.60
53802;DHT22;39709;53.334;6.534;2023-07-02T00:21:18;15.30;24.80
53802;DHT22;39709;53.334;6.534;2023-07-02T00:23:44;15.20;2.30
53802;DHT22;39709;53.334;6.534;2023-07-02T00:26:10;15.20;21.70
53802;DHT22;39709;53.334;6.534;2023-07-02T00:28:36;16.10;14.80
53802;DHT22;39709;53.334;6.534;2023-07-02T00:31:01;15.10;20.20
53802;DHT22;39709;53.334;6.534;2023-07-02T00:33:28;15.20;30.00
53802;DHT22;39709;53.334;6.534;2023-07-02T00:35:54;15.10;59.50
53802;DHT22;39709;53.334;6.534;2023-07-02T00:38:21;15.10;1.00
53802;DHT22;39709;53.334;6.534;2023-07-02T00:40:47;15.10;1.00
53802;DHT22;39709;53.334;6.534;2023-07-02T00:43:13;15.10;63.40
53802;DHT22;39709;53.334;6.534;2023-07-02T00:45:39;15.00;55.60
53802;DHT22;39709;53.334;6.534;2023-07-02T00:48:08;15.10;77.80
53802;DHT22;39709;53.334;6.534;2023-07-02T00:50:33;15.30;64.40
53802;DHT22;39709;53.334;6.534;2023-07-02T00:52:59;15.00;22.70
53802;DHT22;39709;53.334;6.534;2023-07-02T00:55:25;15.00;87.50
53802;DHT22;39709;53.334;6.534;2023-07-02T00:57:50;15.10;84.70
53802;DHT22;39709;53.334;6.534;2023-07-02T01:00:16;15.00;97.60
53802;DHT22;39709;53.334;6.534;2023-07-02T01:02:42;15.10;96.60
53802;DHT22;39709;53.334;6.534;2023-07-02T01:05:14;15.00;87.50
53802;DHT22;39709;53.334;6.534;2023-07-02T01:07:40;15.10;94.20
53802;DHT22;39709;53.334;6.534;2023-07-02T01:10:06;15.00;76.80
53802;DHT22;39709;53.334;6.534;2023-07-02T01:12:32;15.00;95.00
53802;DHT22;39709;53.334;6.534;2023-07-02T01:15:01;14.90;82.80
53802;DHT22;39709;53.334;6.534;2023-07-02T01:17:29;14.90;94.20
53802;DHT22;39709;53.334;6.534;2023-07-02T01:20:02;14.90;99.20
53802;DHT22;39709;53.334;6.534;2023-07-02T01:22:29;14.70;25.00
53802;DHT22;39709;53.334;6.534;2023-07-02T01:24:56;14.70;80.60
53802;DHT22;39709;53.334;6.534;2023-07-02T01:27:22;14.70;92.60
53802;DHT22;39709;53.334;6.534;2023-07-02T01:29:51;14.60;80.80
53802;DHT22;39709;53.334;6.534;2023-07-02T01:32:17;14.50;71.90
53802;DHT22;39709;53.334;6.534;2023-07-02T01:34:42;14.50;68.80
53802;DHT22;39709;53.334;6.534;2023-07-02T01:37:09;14.40;19.50
53802;DHT22;39709;53.334;6.534;2023-07-02T01:39:35;14.40;44.60
53802;DHT22;39709;53.334;6.534;2023-07-02T01:42:12;14.30;23.10
53802;DHT22;39709;53.334;6.534;2023-07-02T01:44:38;14.40;99.40
53802;DHT22;39709;53.334;6.534;2023-07-02T01:47:04;14.30;84.00
53802;DHT22;39709;53.334;6.534;2023-07-02T01:49:30;14.30;22.90
53802;DHT22;39709;53.334;6.534;2023-07-02T01:51:56;14.20;24.50
53802;DHT22;39709;53.334;6.534;2023-07-02T01:54:26;14.30;99.90
53802;DHT22;39709;53.334;6.534;2023-07-02T01:56:53;14.20;94.10
53802;DHT22;39709;53.334;6.534;2023-07-02T01:59:19;14.10;95.00
53802;DHT22;39709;53.334;6.534;2023-07-02T02:01:44;14.20;99.90
53802;DHT22;39709;53.334;6.534;2023-07-02T02:04:11;14.20;99.90
53802;DHT22;39709;53.334;6.534;2023-07-02T02:06:37;14.10;99.90
53802;DHT22;39709;53.334;6.534;2023-07-02T02:09:04;14.10;99.90
53802;DHT22;39709;53.334;6.534;2023-07-02T02:11:33;13.90;99.90
53802;DHT22;39709;53.334;6.534;2023-07-02T02:14:00;13.90;98.60
53802;DHT22;39709;53.334;6.534;2023-07-02T02:16:27;13.90;96.10
53802;DHT22;39709;53.334;6.534;2023-07-02T02:18:53;13.90;99.90
53802;DHT22;39709;53.334;6.534;2023-07-02T02:21:19;13.90;99.90
53802;DHT22;39709;53.334;6.534;2023-07-02T02:23:45;13.80;99.90
53802;DHT22;39709;53.334;6.534;2023-07-02T02:26:11;13.80;90.00
53802;DHT22;39709;53.334;6.534;2023-07-02T02:28:37;13.70;85.50
53802;DHT22;39709;53.334;6.534;2023-07-02T02:31:02;13.90;99.90
53802;DHT22;39709;53.334;6.534;2023-07-02T02:33:28;13.60;96.00
53802;DHT22;39709;53.334;6.534;2023-07-02T02:35:54;13.60;99.90
53802;DHT22;39709;53.334;6.534;2023-07-02T02:38:19;13.60;99.90
53802;DHT22;39709;53.334;6.534;2023-07-02T02:40:45;13.70;99.90
53802;DHT22;39709;53.334;6.534;2023-07-02T02:43:11;13.70;99.90
53802;DHT22;39709;53.334;6.534;2023-07-02T02:45:36;13.60;99.90
53802;DHT22;39709;53.334;6.534;2023-07-02T02:48:02;13.60;99.90
53802;DHT22;39709;53.334;6.534;2023-07-02T02:50:28;13.60;99.90
53802;DHT22;39709;53.334;6.534;2023-07-02T02:52:54;13.60;99.90
53802;DHT22;39709;53.334;6.534;2023-07-02T02:55:19;13.60;99.90
53802;DHT22;39709;53.334;6.534;2023-07-02T02:57:45;13.70;99.90
53802;DHT22;39709;53.334;6.534;2023-07-02T03:00:11;13.60;99.90
53802;DHT22;39709;53.334;6.534;2023-07-02T03:02:37;13.60;99.90
53802;DHT22;39709;53.334;6.534;2023-07-02T03:05:05;13.60;99.90
53802;DHT22;39709;53.334;6.534;2023-07-02T03:07:32;13.50;99.90
53802;DHT22;39709;53.334;6.534;2023-07-02T03:09:58;13.50;99.90
53802;DHT22;39709;53.334;6.534;2023-07-02T03:12:25;13.50;99.90
53802;DHT22;39709;53.334;6.534;2023-07-02T03:14:51;13.70;99.90
53802;DHT22;39709;53.334;6.534;2023-07-02T03:17:22;13.50;99.90
53802;DHT22;39709;53.334;6.534;2023-07-02T03:19:48;13.60;99.90
53802;DHT22;39709;53.334;6.534;2023-07-02T03:22:14;13.50;99.90
53802;DHT22;39709;53.334;6.534;2023-07-02T03:24:40;13.70;99.90
53802;DHT22;39709;53.334;6.534;2023-07-02T03:27:06;13.60;99.90
53802;DHT22;39709;53.334;6.534;2023-07-02T03:29:33;13.60;99.90
53802;DHT22;39709;53.334;6.534;2023-07-02T03:31:59;13.60;99.90
53802;DHT22;39709;53.334;6.534;2023-07-02T03:34:25;13.70;99.90
53802;DHT22;39709;53.334;6.534;2023-07-02T03:36:51;13.70;99.90
53802;DHT22;39709;53.334;6.534;2023-07-02T03:39:16;13.60;99.90
53802;DHT22;39709;53.334;6.534;2023-07-02T03:41:43;13.80;99.90
53802;DHT22;39709;53.334;6.534;2023-07-02T03:44:09;13.80;99.90
53802;DHT22;39709;53.334;6.534;2023-07-02T03:46:35;13.70;99.90
53802;DHT22;39709;53.334;6.534;2023-07-02T03:49:00;13.60;99.90
53802;DHT22;39709;53.334;6.534;2023-07-02T03:51:26;13.80;99.90
53802;DHT22;39709;53.334;6.534;2023-07-02T03:53:52;13.70;99.90
53802;DHT22;39709;53.334;6.534;2023-07-02T03:56:18;13.70;99.90
53802;DHT22;39709;53.334;6.534;2023-07-02T03:58:43;13.80;99.90
53802;DHT22;39709;53.334;6.534;2023-07-02T04:01:09;13.70;99.90
53802;DHT22;39709;53.334;6.534;2023-07-02T04:03:35;13.90;99.90
53802;DHT22;39709;53.334;6.534;2023-07-02T04:06:01;13.80;99.90
53802;DHT22;39709;53.334;6.534;2023-07-02T04:08:27;13.80;99.90
53802;DHT22;39709;53.334;6.534;2023-07-02T04:10:54;14.10;99.90
53802;DHT22;39709;53.334;6.534;2023-07-02T04:13:20;14.10;99.90
53802;DHT22;39709;53.334;6.534;2023-07-02T04:15:46;14.20;99.90
53802;DHT22;39709;53.334;6.534;2023-07-02T04:18:12;14.60;99.90
53802;DHT22;39709;53.334;6.534;2023-07-02T04:20:38;14.40;99.90
53802;DHT22;39709;53.334;6.534;2023-07-02T04:23:07;14.50;99.90
53802;DHT22;39709;53.334;6.534;2023-07-02T04:25:33;14.40;99.90
53802;DHT22;39709;53.334;6.534;2023-07-02T04:27:58;14.50;99.90
53802;DHT22;39709;53.334;6.534;2023-07-02T04:30:25;14.50;99.90
53802;DHT22;39709;53.334;6.534;2023-07-02T04:32:53;14.50;41.30
53802;DHT22;39709;53.334;6.534;2023-07-02T04:35:19;14.60;99.90
53802;DHT22;39709;53.334;6.534;2023-07-02T04:37:45;14.50;99.90
53802;DHT22;39709;53.334;6.534;2023-07-02T04:40:11;14.80;98.00
53802;DHT22;39709;53.334;6.534;2023-07-02T04:42:38;14.80;92.50
53802;DHT22;39709;53.334;6.534;2023-07-02T04:45:07;14.90;90.00
53802;DHT22;39709;53.334;6.534;2023-07-02T04:47:34;14.90;65.60
53802;DHT22;39709;53.334;6.534;2023-07-02T04:50:00;14.90;1.00
53802;DHT22;39709;53.334;6.534;2023-07-02T04:52:26;15.00;1.00
53802;DHT22;39709;53.334;6.534;2023-07-02T04:54:52;15.00;1.00
53802;DHT22;39709;53.334;6.534;2023-07-02T04:57:18;15.20;1.00
53802;DHT22;39709;53.334;6.534;2023-07-02T04:59:44;15.20;6.50
53802;DHT22;39709;53.334;6.534;2023-07-02T05:02:10;15.30;14.00
53802;DHT22;39709;53.334;6.534;2023-07-02T05:04:36;15.30;13.80
53802;DHT22;39709;53.334;6.534;2023-07-02T05:07:03;15.30;1.00
53802;DHT22;39709;53.334;6.534;2023-07-02T05:09:30;15.40;1.00
53802;DHT22;39709;53.334;6.534;2023-07-02T05:11:55;15.40;3.20
53802;DHT22;39709;53.334;6.534;2023-07-02T05:14:21;15.50;1.00
53802;DHT22;39709;53.334;6.534;2023-07-02T05:16:48;15.60;1.00
53802;DHT22;39709;53.334;6.534;2023-07-02T05:19:14;15.70;1.00
53802;DHT22;39709;53.334;6.534;2023-07-02T05:21:40;15.70;1.00
53802;DHT22;39709;53.334;6.534;2023-07-02T05:24:07;15.70;1.00
53802;DHT22;39709;53.334;6.534;2023-07-02T05:26:33;15.80;1.00
53802;DHT22;39709;53.334;6.534;2023-07-02T05:28:59;15.80;1.00
53802;DHT22;39709;53.334;6.534;2023-07-02T05:31:25;15.70;1.00
53802;DHT22;39709;53.334;6.534;2023-07-02T05:33:51;16.00;1.00
53802;DHT22;39709;53.334;6.534;2023-07-02T05:36:16;15.90;1.00
53802;DHT22;39709;53.334;6.534;2023-07-02T05:38:42;16.10;1.00
53802;DHT22;39709;53.334;6.534;2023-07-02T05:41:08;16.00;1.00
53802;DHT22;39709;53.334;6.534;2023-07-02T05:43:33;16.30;1.00
53802;DHT22;39709;53.334;6.534;2023-07-02T05:45:59;16.20;1.00
53802;DHT22;39709;53.334;6.534;2023-07-02T05:48:28;16.20;1.00
53802;DHT22;39709;53.334;6.534;2023-07-02T05:50:54;16.20;1.00
53802;DHT22;39709;53.334;6.534;2023-07-02T05:53:20;16.30;1.00
53802;DHT22;39709;53.334;6.534;2023-07-02T05:55:46;16.20;1.00
53802;DHT22;39709;53.334;6.534;2023-07-02T05:58:12;16.30;1.00
53802;DHT22;39709;53.334;6.534;2023-07-02T06:00:38;16.40;1.00
53802;DHT22;39709;53.334;6.534;2023-07-02T06:03:07;16.40;1.00
53802;DHT22;39709;53.334;6.534;2023-07-02T06:05:32;16.60;1.00
53802;DHT22;39709;53.334;6.534;2023-07-02T06:07:58;16.50;1.00
53802;DHT22;39709;53.334;6.534;2023-07-02T06:10:24;16.70;1.00
53802;DHT22;39709;53.334;6.534;2023-07-02T06:12:49;16.50;1.00
53802;DHT22;39709;53.334;6.534;2023-07-02T06:15:15;16.60;1.00
53802;DHT22;39709;53.334;6.534;2023-07-02T06:17:41;16.50;1.00
53802;DHT22;39709;53.334;6.534;2023-07-02T06:20:07;16.40;1.00
53802;DHT22;39709;53.334;6.534;2023-07-02T06:22:33;16.40;1.00
53802;DHT22;39709;53.334;6.534;2023-07-02T06:24:58;16.60;1.00
53802;DHT22;39709;53.334;6.534;2023-07-02T06:27:24;16.70;1.00
53802;DHT22;39709;53.334;6.534;2023-07-02T06:29:50;16.70;1.00
53802;DHT22;39709;53.334;6.534;2023-07-02T06:32:17;16.80;1.00
53802;DHT22;39709;53.334;6.534;2023-07-02T06:34:43;16.70;1.00
53802;DHT22;39709;53.334;6.534;2023-07-02T06:37:09;16.80;1.00
53802;DHT22;39709;53.334;6.534;2023-07-02T06:39:34;16.70;1.00
53802;DHT22;39709;53.334;6.534;2023-07-02T06:42:00;16.50;1.00
53802;DHT22;39709;53.334;6.534;2023-07-02T06:44:25;16.50;1.00
53802;DHT22;39709;53.334;6.534;2023-07-02T06:46:51;16.40;1.00
53802;DHT22;39709;53.334;6.534;2023-07-02T06:49:17;16.40;1.00
53802;DHT22;39709;53.334;6.534;2023-07-02T06:51:42;16.60;1.00
53802;DHT22;39709;53.334;6.534;2023-07-02T06:54:08;16.60;1.00
53802;DHT22;39709;53.334;6.534;2023-07-02T06:56:34;16.80;1.00
53802;DHT22;39709;53.334;6.534;2023-07-02T06:59:00;16.80;1.00
53802;DHT22;39709;53.334;6.534;2023-07-02T07:01:26;16.80;1.00
53802;DHT22;39709;53.334;6.534;2023-07-02T07:03:52;16.80;99.90
53802;DHT22;39709;53.334;6.534;2023-07-02T07:06:18;16.90;99.90
53802;DHT22;39709;53.334;6.534;2023-07-02T07:08:43;17.10;99.90
53802;DHT22;39709;53.334;6.534;2023-07-02T07:11:09;16.90;99.90
53802;DHT22;39709;53.334;6.534;2023-07-02T07:13:35;17.00;99.90
53802;DHT22;39709;53.334;6.534;2023-07-02T07:16:00;17.10;99.90
53802;DHT22;39709;53.334;6.534;2023-07-02T07:18:26;17.40;99.90
53802;DHT22;39709;53.334;6.534;2023-07-02T07:20:52;17.30;99.90
53802;DHT22;39709;53.334;6.534;2023-07-02T07:23:21;17.20;99.90
53802;DHT22;39709;53.334;6.534;2023-07-02T07:25:47;17.30;99.90
53802;DHT22;39709;53.334;6.534;2023-07-02T07:28:13;17.10;99.90
53802;DHT22;39709;53.334;6.534;2023-07-02T07:30:44;17.20;99.90
53802;DHT22;39709;53.334;6.534;2023-07-02T07:33:10;17.30;99.90
53802;DHT22;39709;53.334;6.534;2023-07-02T07:35:36;17.20;99.90
53802;DHT22;39709;53.334;6.534;2023-07-02T07:38:02;17.30;99.90
53802;DHT22;39709;53.334;6.534;2023-07-02T07:40:28;17.10;99.90
53802;DHT22;39709;53.334;6.534;2023-07-02T07:42:53;17.10;99.90
53802;DHT22;39709;53.334;6.534;2023-07-02T07:45:19;17.20;99.90
53802;DHT22;39709;53.334;6.534;2023-07-02T07:47:45;17.60;99.90
53802;DHT22;39709;53.334;6.534;2023-07-02T07:50:10;17.50;99.90
53802;DHT22;39709;53.334;6.534;2023-07-02T07:52:40;17.50;99.90
53802;DHT22;39709;53.334;6.534;2023-07-02T07:55:06;17.50;99.90
53802;DHT22;39709;53.334;6.534;2023-07-02T07:57:35;17.70;99.90
53802;DHT22;39709;53.334;6.534;2023-07-02T08:00:05;17.90;99.90
53802;DHT22;39709;53.334;6.534;2023-07-02T08:02:35;17.80;99.90
53802;DHT22;39709;53.334;6.534;2023-07-02T08:05:01;17.70;99.90
53802;DHT22;39709;53.334;6.534;2023-07-02T08:07:27;17.50;99.90
53802;DHT22;39709;53.334;6.534;2023-07-02T08:09:53;17.60;99.90
53802;DHT22;39709;53.334;6.534;2023-07-02T08:12:18;17.80;99.90
53802;DHT22;39709;53.334;6.534;2023-07-02T08:14:44;17.80;99.90
53802;DHT22;39709;53.334;6.534;2023-07-02T08:17:10;17.80;99.90
53802;DHT22;39709;53.334;6.534;2023-07-02T08:19:35;17.70;99.90
53802;DHT22;39709;53.334;6.534;2023-07-02T08:22:01;17.60;99.90
53802;DHT22;39709;53.334;6.534;2023-07-02T08:24:28;17.70;99.90
53802;DHT22;39709;53.334;6.534;2023-07-02T08:26:53;17.50;99.90
53802;DHT22;39709;53.334;6.534;2023-07-02T08:29:19;17.40;99.90
53802;DHT22;39709;53.334;6.534;2023-07-02T08:31:45;17.50;99.90
53802;DHT22;39709;53.334;6.534;2023-07-02T08:34:10;17.30;99.90
53802;DHT22;39709;53.334;6.534;2023-07-02T08:36:36;17.50;99.90
53802;DHT22;39709;53.334;6.534;2023-07-02T08:39:02;17.80;99.90
53802;DHT22;39709;53.334;6.534;2023-07-02T08:41:29;17.70;99.90
53802;DHT22;39709;53.334;6.534;2023-07-02T08:43:55;17.80;99.90
53802;DHT22;39709;53.334;6.534;2023-07-02T08:46:22;18.00;99.90
53802;DHT22;39709;53.334;6.534;2023-07-02T08:48:47;18.20;99.90
53802;DHT22;39709;53.334;6.534;2023-07-02T08:51:13;18.10;99.90
53802;DHT22;39709;53.334;6.534;2023-07-02T08:53:39;18.30;99.90
53802;DHT22;39709;53.334;6.534;2023-07-02T08:56:04;18.40;99.90
53802;DHT22;39709;53.334;6.534;2023-07-02T08:58:30;18.60;99.90
53802;DHT22;39709;53.334;6.534;2023-07-02T09:01:10;18.30;99.90
53802;DHT22;39709;53.334;6.534;2023-07-02T09:03:36;18.80;99.90
53802;DHT22;39709;53.334;6.534;2023-07-02T09:06:06;18.70;99.90
53802;DHT22;39709;53.334;6.534;2023-07-02T09:08:32;18.60;99.90
53802;DHT22;39709;53.334;6.534;2023-07-02T09:11:12;18.50;99.90
53802;DHT22;39709;53.334;6.534;2023-07-02T09:13:45;18.60;99.90
53802;DHT22;39709;53.334;6.534;2023-07-02T09:16:26;18.40;99.90
53802;DHT22;39709;53.334;6.534;2023-07-02T09:21:21;18.50;99.90
53802;DHT22;39709;53.334;6.534;2023-07-02T09:23:47;18.50;99.90
53802;DHT22;39709;53.334;6.534;2023-07-02T09:26:20;18.60;99.90
53802;DHT22;39709;53.334;6.534;2023-07-02T09:28:46;18.60;99.90
53802;DHT22;39709;53.334;6.534;2023-07-02T09:31:11;18.70;99.90
53802;DHT22;39709;53.334;6.534;2023-07-02T09:33:37;18.70;99.90
53802;DHT22;39709;53.334;6.534;2023-07-02T09:36:03;18.80;99.90
53802;DHT22;39709;53.334;6.534;2023-07-02T09:38:29;18.90;99.90
53802;DHT22;39709;53.334;6.534;2023-07-02T09:40:56;19.00;99.90
53802;DHT22;39709;53.334;6.534;2023-07-02T09:43:22;18.70;99.90
53802;DHT22;39709;53.334;6.534;2023-07-02T09:45:50;18.50;99.90
53802;DHT22;39709;53.334;6.534;2023-07-02T09:48:17;18.60;99.90
53802;DHT22;39709;53.334;6.534;2023-07-02T09:50:48;18.50;99.90
53802;DHT22;39709;53.334;6.534;2023-07-02T09:53:14;18.70;99.90
53802;DHT22;39709;53.334;6.534;2023-07-02T09:55:42;18.80;99.90
53802;DHT22;39709;53.334;6.534;2023-07-02T09:58:08;19.10;99.90
53802;DHT22;39709;53.334;6.534;2023-07-02T10:00:34;19.10;99.90
53802;DHT22;39709;53.334;6.534;2023-07-02T10:03:00;19.00;99.90
53802;DHT22;39709;53.334;6.534;2023-07-02T10:05:31;19.30;99.90
53802;DHT22;39709;53.334;6.534;2023-07-02T10:07:58;20.20;99.90
53802;DHT22;39709;53.334;6.534;2023-07-02T10:10:31;19.40;99.90
53802;DHT22;39709;53.334;6.534;2023-07-02T10:12:57;19.50;99.90
53802;DHT22;39709;53.334;6.534;2023-07-02T10:15:28;19.50;99.90
53802;DHT22;39709;53.334;6.534;2023-07-02T10:18:03;19.50;99.90
53802;DHT22;39709;53.334;6.534;2023-07-02T10:20:39;19.40;99.90
53802;DHT22;39709;53.334;6.534;2023-07-02T10:23:09;19.30;99.90
53802;DHT22;39709;53.334;6.534;2023-07-02T10:25:38;19.40;99.90
53802;DHT22;39709;53.334;6.534;2023-07-02T10:28:21;19.20;99.90
53802;DHT22;39709;53.334;6.534;2023-07-02T10:30:52;19.30;99.90
53802;DHT22;39709;53.334;6.534;2023-07-02T10:33:19;19.30;99.90
53802;DHT22;39709;53.334;6.534;2023-07-02T10:35:47;19.30;99.90
53802;DHT22;39709;53.334;6.534;2023-07-02T10:38:24;19.40;99.90
53802;DHT22;39709;53.334;6.534;2023-07-02T10:40:58;19.40;99.90
53802;DHT22;39709;53.334;6.534;2023-07-02T10:43:29;19.20;99.90
53802;DHT22;39709;53.334;6.534;2023-07-02T10:45:56;19.20;99.90
53802;DHT22;39709;53.334;6.534;2023-07-02T10:48:22;19.20;99.90
53802;DHT22;39709;53.334;6.534;2023-07-02T10:50:47;19.30;99.90
53802;DHT22;39709;53.334;6.534;2023-07-02T10:53:19;19.30;99.90
53802;DHT22;39709;53.334;6.534;2023-07-02T10:55:45;19.30;99.90
53802;DHT22;39709;53.334;6.534;2023-07-02T10:58:12;19.20;99.90
53802;DHT22;39709;53.334;6.534;2023-07-02T11:00:49;19.00;99.90
53802;DHT22;39709;53.334;6.534;2023-07-02T11:05:48;19.00;99.90
53802;DHT22;39709;53.334;6.534;2023-07-02T11:08:14;18.80;99.90
53802;DHT22;39709;53.334;6.534;2023-07-02T11:10:40;18.90;99.90
53802;DHT22;39709;53.334;6.534;2023-07-02T11:13:18;19.10;99.90
53802;DHT22;39709;53.334;6.534;2023-07-02T11:15:45;19.40;99.90
53802;DHT22;39709;53.334;6.534;2023-07-02T11:18:15;19.50;99.90
53802;DHT22;39709;53.334;6.534;2023-07-02T11:20:43;19.60;99.90
53802;DHT22;39709;53.334;6.534;2023-07-02T11:23:22;19.50;99.90
53802;DHT22;39709;53.334;6.534;2023-07-02T11:25:58;19.40;99.90
53802;DHT22;39709;53.334;6.534;2023-07-02T11:28:24;19.20;99.90
53802;DHT22;39709;53.334;6.534;2023-07-02T11:30:50;19.50;99.90
53802;DHT22;39709;53.334;6.534;2023-07-02T11:33:16;19.00;99.90
53802;DHT22;39709;53.334;6.534;2023-07-02T11:35:42;19.10;99.90
53802;DHT22;39709;53.334;6.534;2023-07-02T11:38:09;19.20;99.90
53802;DHT22;39709;53.334;6.534;2023-07-02T11:40:38;19.20;99.90
53802;DHT22;39709;53.334;6.534;2023-07-02T11:43:06;19.10;99.90
53802;DHT22;39709;53.334;6.534;2023-07-02T11:45:31;18.90;99.90
53802;DHT22;39709;53.334;6.534;2023-07-02T11:47:57;18.70;99.90
53802;DHT22;39709;53.334;6.534;2023-07-02T11:50:23;18.70;99.90
53802;DHT22;39709;53.334;6.534;2023-07-02T11:52:49;18.90;99.90
53802;DHT22;39709;53.334;6.534;2023-07-02T11:55:14;18.90;99.90
53802;DHT22;39709;53.334;6.534;2023-07-02T11:57:40;18.70;99.90
53802;DHT22;39709;53.334;6.534;2023-07-02T12:00:06;18.70;99.90
53802;DHT22;39709;53.334;6.534;2023-07-02T12:02:32;19.10;99.90
53802;DHT22;39709;53.334;6.534;2023-07-02T12:04:57;19.10;99.90
53802;DHT22;39709;53.334;6.534;2023-07-02T12:07:23;19.10;99.90
53802;DHT22;39709;53.334;6.534;2023-07-02T12:09:50;18.90;99.90
53802;DHT22;39709;53.334;6.534;2023-07-02T12:12:16;19.00;99.90
53802;DHT22;39709;53.334;6.534;2023-07-02T12:14:41;18.90;99.90
53802;DHT22;39709;53.334;6.534;2023-07-02T12:17:09;19.10;99.90
53802;DHT22;39709;53.334;6.534;2023-07-02T12:19:38;19.30;99.90
53802;DHT22;39709;53.334;6.534;2023-07-02T12:22:05;19.50;99.90
53802;DHT22;39709;53.334;6.534;2023-07-02T12:24:30;19.80;99.90
53802;DHT22;39709;53.334;6.534;2023-07-02T12:26:56;19.80;99.90
53802;DHT22;39709;53.334;6.534;2023-07-02T12:29:22;19.70;99.90
53802;DHT22;39709;53.334;6.534;2023-07-02T12:31:47;19.50;99.90
53802;DHT22;39709;53.334;6.534;2023-07-02T12:34:13;19.60;99.90
53802;DHT22;39709;53.334;6.534;2023-07-02T12:36:39;19.30;99.90
53802;DHT22;39709;53.334;6.534;2023-07-02T12:39:04;19.10;99.90
53802;DHT22;39709;53.334;6.534;2023-07-02T12:41:30;19.10;99.90
53802;DHT22;39709;53.334;6.534;2023-07-02T12:43:56;19.20;99.90
53802;DHT22;39709;53.334;6.534;2023-07-02T12:46:22;19.30;99.90
53802;DHT22;39709;53.334;6.534;2023-07-02T12:48:48;19.70;99.90
53802;DHT22;39709;53.334;6.534;2023-07-02T12:51:13;19.50;99.90
53802;DHT22;39709;53.334;6.534;2023-07-02T12:53:40;19.50;99.90
53802;DHT22;39709;53.334;6.534;2023-07-02T12:56:05;19.50;99.90
53802;DHT22;39709;53.334;6.534;2023-07-02T12:58:31;19.70;99.90
53802;DHT22;39709;53.334;6.534;2023-07-02T13:00:57;19.40;99.90
53802;DHT22;39709;53.334;6.534;2023-07-02T13:03:23;19.20;99.90
53802;DHT22;39709;53.334;6.534;2023-07-02T13:05:50;18.90;99.90
53802;DHT22;39709;53.334;6.534;2023-07-02T13:08:16;18.60;99.90
53802;DHT22;39709;53.334;6.534;2023-07-02T13:10:42;18.50;99.90
53802;DHT22;39709;53.334;6.534;2023-07-02T13:13:08;18.40;99.90
53802;DHT22;39709;53.334;6.534;2023-07-02T13:15:34;18.40;99.90
53802;DHT22;39709;53.334;6.534;2023-07-02T13:18:01;18.50;99.90
53802;DHT22;39709;53.334;6.534;2023-07-02T13:20:26;18.60;99.90
53802;DHT22;39709;53.334;6.534;2023-07-02T13:22:52;18.60;99.90
53802;DHT22;39709;53.334;6.534;2023-07-02T13:25:18;18.50;99.90
53802;DHT22;39709;53.334;6.534;2023-07-02T13:27:44;18.50;99.90
53802;DHT22;39709;53.334;6.534;2023-07-02T13:30:11;18.20;99.90
53802;DHT22;39709;53.334;6.534;2023-07-02T13:32:36;18.30;99.90
53802;DHT22;39709;53.334;6.534;2023-07-02T13:35:02;18.40;99.90
53802;DHT22;39709;53.334;6.534;2023-07-02T13:37:28;18.60;99.90
53802;DHT22;39709;53.334;6.534;2023-07-02T13:39:54;19.00;99.90
53802;DHT22;39709;53.334;6.534;2023-07-02T13:42:19;18.80;99.90
53802;DHT22;39709;53.334;6.534;2023-07-02T13:44:45;18.70;99.90
53802;DHT22;39709;53.334;6.534;2023-07-02T13:47:11;18.90;99.90
53802;DHT22;39709;53.334;6.534;2023-07-02T13:49:37;19.00;99.90
53802;DHT22;39709;53.334;6.534;2023-07-02T13:52:03;19.00;99.90
53802;DHT22;39709;53.334;6.534;2023-07-02T13:54:29;19.00;99.90
53802;DHT22;39709;53.334;6.534;2023-07-02T13:56:56;18.80;99.90
53802;DHT22;39709;53.334;6.534;2023-07-02T13:59:22;18.90;99.90
53802;DHT22;39709;53.334;6.534;2023-07-02T14:01:48;18.80;99.90
53802;DHT22;39709;53.334;6.534;2023-07-02T14:04:15;18.90;99.90
53802;DHT22;39709;53.334;6.534;2023-07-02T14:06:42;18.80;99.90
53802;DHT22;39709;53.334;6.534;2023-07-02T14:09:07;18.80;99.90
53802;DHT22;39709;53.334;6.534;2023-07-02T14:11:35;18.80;99.90
53802;DHT22;39709;53.334;6.534;2023-07-02T14:14:01;18.90;99.90
53802;DHT22;39709;53.334;6.534;2023-07-02T14:16:27;18.90;99.90
53802;DHT22;39709;53.334;6.534;2023-07-02T14:18:52;19.00;99.90
53802;DHT22;39709;53.334;6.534;2023-07-02T14:21:18;18.90;99.90
53802;DHT22;39709;53.334;6.534;2023-07-02T14:23:45;18.70;99.90
53802;DHT22;39709;53.334;6.534;2023-07-02T14:26:11;18.90;99.90
53802;DHT22;39709;53.334;6.534;2023-07-02T14:28:37;19.20;99.90
53802;DHT22;39709;53.334;6.534;2023-07-02T14:31:05;19.10;99.90
53802;DHT22;39709;53.334;6.534;2023-07-02T14:33:33;18.90;99.90
53802;DHT22;39709;53.334;6.534;2023-07-02T14:36:00;18.80;99.90
53802;DHT22;39709;53.334;6.534;2023-07-02T14:38:26;18.90;99.90
53802;DHT22;39709;53.334;6.534;2023-07-02T14:40:53;18.90;99.90
53802;DHT22;39709;53.334;6.534;2023-07-02T14:43:20;18.90;99.90
53802;DHT22;39709;53.334;6.534;2023-07-02T14:45:48;19.00;99.90
53802;DHT22;39709;53.334;6.534;2023-07-02T14:48:15;19.20;99.90
53802;DHT22;39709;53.334;6.534;2023-07-02T14:50:45;18.80;99.90
53802;DHT22;39709;53.334;6.534;2023-07-02T14:53:11;18.80;99.90
53802;DHT22;39709;53.334;6.534;2023-07-02T14:55:37;18.60;99.90
53802;DHT22;39709;53.334;6.534;2023-07-02T14:58:02;18.60;99.90
53802;DHT22;39709;53.334;6.534;2023-07-02T15:00:28;18.70;99.90
53802;DHT22;39709;53.334;6.534;2023-07-02T15:02:54;18.80;99.90
53802;DHT22;39709;53.334;6.534;2023-07-02T15:05:19;18.70;99.90
53802;DHT22;39709;53.334;6.534;2023-07-02T15:07:45;18.60;99.90
53802;DHT22;39709;53.334;6.534;2023-07-02T15:10:11;18.60;99.90
53802;DHT22;39709;53.334;6.534;2023-07-02T15:12:36;18.60;99.90
53802;DHT22;39709;53.334;6.534;2023-07-02T15:15:03;18.40;99.90
53802;DHT22;39709;53.334;6.534;2023-07-02T15:17:29;18.60;99.90
53802;DHT22;39709;53.334;6.534;2023-07-02T15:19:55;18.80;99.90
53802;DHT22;39709;53.334;6.534;2023-07-02T15:22:21;19.40;99.90
53802;DHT22;39709;53.334;6.534;2023-07-02T15:24:46;19.60;99.90
53802;DHT22;39709;53.334;6.534;2023-07-02T15:27:12;19.50;99.90
53802;DHT22;39709;53.334;6.534;2023-07-02T15:29:38;19.30;99.90
53802;DHT22;39709;53.334;6.534;2023-07-02T15:32:04;19.30;99.90
53802;DHT22;39709;53.334;6.534;2023-07-02T15:34:29;19.10;99.90